createdAt,value
2023-06-07T00:00:06.777Z,18.52
2023-06-07T00:02:43.632Z,18.38
2023-06-07T00:05:14.090Z,18.30
2023-06-07T00:07:43.154Z,18.28
2023-06-07T00:10:12.041Z,18.30
2023-06-07T00:12:40.637Z,18.33
2023-06-07T00:15:11.321Z,18.40
2023-06-07T00:17:42.290Z,18.46
2023-06-07T00:20:13.850Z,18.49
2023-06-07T00:22:42.963Z,18.45
2023-06-07T00:25:12.311Z,18.42
2023-06-07T00:27:40.847Z,18.28
2023-06-07T00:30:12.015Z,18.21
2023-06-07T00:32:40.662Z,18.18
2023-06-07T00:35:10.780Z,18.16
2023-06-07T00:37:39.340Z,18.06
2023-06-07T00:40:09.103Z,17.88
2023-06-07T00:42:37.782Z,17.88
2023-06-07T00:45:07.215Z,17.87
2023-06-07T00:47:39.394Z,17.78
2023-06-07T00:50:09.127Z,17.67
2023-06-07T00:52:47.265Z,17.59
2023-06-07T00:55:15.834Z,17.61
2023-06-07T00:57:54.897Z,17.59
2023-06-07T01:00:23.654Z,17.58
2023-06-07T01:02:56.742Z,17.52
2023-06-07T01:05:25.394Z,17.35
2023-06-07T01:07:56.076Z,17.32
2023-06-07T01:10:24.746Z,17.40
2023-06-07T01:12:56.062Z,17.43
2023-06-07T01:15:25.529Z,17.31
2023-06-07T01:17:55.819Z,17.38
2023-06-07T01:20:26.880Z,17.40
2023-06-07T01:22:58.081Z,17.46
2023-06-07T01:25:28.230Z,17.47
2023-06-07T01:27:58.143Z,17.41
2023-06-07T01:30:32.528Z,17.39
2023-06-07T01:33:05.188Z,17.34
2023-06-07T01:35:35.735Z,17.34
2023-06-07T01:38:04.406Z,17.40
2023-06-07T01:40:35.331Z,17.36
2023-06-07T01:43:05.953Z,17.34
2023-06-07T01:45:35.368Z,17.28
2023-06-07T01:48:07.395Z,17.13
2023-06-07T01:50:35.928Z,17.15
2023-06-07T01:53:04.387Z,17.10
2023-06-07T01:55:34.793Z,17.07
2023-06-07T01:58:11.305Z,17.04
2023-06-07T02:00:48.268Z,17.02
2023-06-07T02:03:21.978Z,16.95
2023-06-07T02:05:52.632Z,16.83
2023-06-07T02:08:30.068Z,16.77
2023-06-07T02:11:00.817Z,16.59
2023-06-07T02:13:32.059Z,16.47
2023-06-07T02:16:01.894Z,16.34
2023-06-07T02:18:32.114Z,16.31
2023-06-07T02:21:00.604Z,16.38
2023-06-07T02:23:29.042Z,16.39
2023-06-07T02:25:57.492Z,16.37
2023-06-07T02:28:27.538Z,16.30
2023-06-07T02:30:56.738Z,16.30
2023-06-07T02:33:26.309Z,16.32
2023-06-07T02:35:54.894Z,16.29
2023-06-07T02:38:24.694Z,16.33
2023-06-07T02:40:55.261Z,16.32
2023-06-07T02:43:23.605Z,16.39
2023-06-07T02:45:53.420Z,16.41
2023-06-07T02:48:21.895Z,16.33
2023-06-07T02:50:50.502Z,16.30
2023-06-07T02:53:18.947Z,16.34
2023-06-07T02:55:47.330Z,16.34
2023-06-07T02:58:16.708Z,16.36
2023-06-07T03:00:47.850Z,16.45
2023-06-07T03:03:18.261Z,16.47
2023-06-07T03:05:49.273Z,16.45
2023-06-07T03:08:18.014Z,16.41
2023-06-07T03:10:46.622Z,16.45
2023-06-07T03:13:15.076Z,16.47
2023-06-07T03:15:43.675Z,16.44
2023-06-07T03:18:16.641Z,16.42
2023-06-07T03:20:46.503Z,16.34
2023-06-07T03:23:14.940Z,16.25
2023-06-07T03:25:43.346Z,16.26
2023-06-07T03:28:12.161Z,16.24
2023-06-07T03:30:41.437Z,16.14
2023-06-07T03:33:09.827Z,16.03
2023-06-07T03:35:38.199Z,15.99
2023-06-07T03:38:08.026Z,15.98
2023-06-07T03:40:36.520Z,15.92
2023-06-07T03:43:04.925Z,15.90
2023-06-07T03:45:33.316Z,15.94
2023-06-07T03:48:01.831Z,16.07
2023-06-07T03:50:30.264Z,16.17
2023-06-07T03:52:58.957Z,16.21
2023-06-07T03:55:30.708Z,16.19
2023-06-07T03:57:59.799Z,16.06
2023-06-07T04:00:29.059Z,16.05
2023-06-07T04:02:57.767Z,16.14
2023-06-07T04:05:27.327Z,16.19
2023-06-07T04:08:00.681Z,16.22
2023-06-07T04:10:30.616Z,16.23
2023-06-07T04:12:59.049Z,16.22
2023-06-07T04:15:27.512Z,16.20
2023-06-07T04:17:55.915Z,16.18
2023-06-07T04:20:24.363Z,16.18
2023-06-07T04:22:53.260Z,16.22
2023-06-07T04:25:24.047Z,16.20
2023-06-07T04:28:00.614Z,16.18
2023-06-07T04:30:35.683Z,16.26
2023-06-07T04:33:05.652Z,16.34
2023-06-07T04:35:34.820Z,16.37
2023-06-07T04:38:03.967Z,16.38
2023-06-07T04:40:32.478Z,16.39
2023-06-07T04:43:06.136Z,16.40
2023-06-07T04:45:34.870Z,16.40
2023-06-07T04:48:03.373Z,16.33
2023-06-07T04:50:31.910Z,16.13
2023-06-07T04:53:03.946Z,16.10
2023-06-07T04:55:35.306Z,16.06
2023-06-07T04:58:13.077Z,16.13
2023-06-07T05:00:41.680Z,16.26
2023-06-07T05:03:10.362Z,16.35
2023-06-07T05:05:39.234Z,16.47
2023-06-07T05:08:07.734Z,16.62
2023-06-07T05:10:37.876Z,16.72
2023-06-07T05:13:06.275Z,16.74
2023-06-07T05:15:36.149Z,16.80
2023-06-07T05:18:04.635Z,16.85
2023-06-07T05:20:34.428Z,16.91
2023-06-07T05:23:03.691Z,16.91
2023-06-07T05:25:32.358Z,16.90
2023-06-07T05:28:12.379Z,16.90
2023-06-07T05:30:43.540Z,16.93
2023-06-07T05:33:12.061Z,16.98
2023-06-07T05:35:40.652Z,17.00
2023-06-07T05:38:09.640Z,17.07
2023-06-07T05:40:38.310Z,17.18
2023-06-07T05:43:07.378Z,17.23
2023-06-07T05:45:36.282Z,17.28
2023-06-07T05:48:07.154Z,17.30
2023-06-07T05:50:35.676Z,17.38
2023-06-07T05:53:04.161Z,17.42
2023-06-07T05:55:32.597Z,17.46
2023-06-07T05:58:01.675Z,17.53
2023-06-07T06:00:30.314Z,17.61
2023-06-07T06:03:02.068Z,17.69
2023-06-07T06:05:32.175Z,17.76
2023-06-07T06:08:00.653Z,17.82
2023-06-07T06:10:29.672Z,17.88
2023-06-07T06:12:58.909Z,17.91
2023-06-07T06:15:27.390Z,17.98
2023-06-07T06:17:56.209Z,18.03
2023-06-07T06:20:24.833Z,18.04
2023-06-07T06:22:57.420Z,18.09
2023-06-07T06:25:26.977Z,18.16
2023-06-07T06:27:55.470Z,18.21
2023-06-07T06:30:24.760Z,18.29
2023-06-07T06:33:01.209Z,18.36
2023-06-07T06:35:29.734Z,18.42
2023-06-07T06:37:59.573Z,18.45
2023-06-07T06:40:28.083Z,18.49
2023-06-07T06:42:56.721Z,18.53
2023-06-07T06:45:25.125Z,18.55
2023-06-07T06:47:53.664Z,18.58
2023-06-07T06:50:32.744Z,18.61
2023-06-07T06:53:04.062Z,18.62
2023-06-07T06:55:33.046Z,18.68
2023-06-07T06:58:04.392Z,18.74
2023-06-07T07:00:37.013Z,18.81
2023-06-07T07:03:05.613Z,18.86
2023-06-07T07:05:34.057Z,18.92
2023-06-07T07:08:04.895Z,18.98
2023-06-07T07:10:33.323Z,19.05
2023-06-07T07:13:01.852Z,19.13
2023-06-07T07:15:30.482Z,19.18
2023-06-07T07:17:59.163Z,19.25
2023-06-07T07:20:28.207Z,19.34
2023-06-07T07:22:57.049Z,19.43
2023-06-07T07:25:26.768Z,19.51
2023-06-07T07:27:55.210Z,19.57
2023-06-07T07:30:23.778Z,19.61
2023-06-07T07:32:52.560Z,19.66
2023-06-07T07:35:23.483Z,19.72
2023-06-07T07:37:54.836Z,19.76
2023-06-07T07:40:23.427Z,19.82
2023-06-07T07:42:53.270Z,19.95
2023-06-07T07:45:21.639Z,20.08
2023-06-07T07:47:50.066Z,20.13
2023-06-07T07:50:18.604Z,20.16
2023-06-07T07:52:57.915Z,20.19
2023-06-07T07:55:27.003Z,20.25
2023-06-07T07:57:56.758Z,20.34
2023-06-07T08:00:25.556Z,20.38
2023-06-07T08:02:54.075Z,20.39
2023-06-07T08:05:22.588Z,20.48
2023-06-07T08:07:51.090Z,20.59
2023-06-07T08:10:19.674Z,20.69
2023-06-07T08:12:48.268Z,20.79
2023-06-07T08:15:18.497Z,20.94
2023-06-07T08:17:47.897Z,21.02
2023-06-07T08:20:20.656Z,21.05
2023-06-07T08:22:51.580Z,21.16
2023-06-07T08:25:20.201Z,21.25
2023-06-07T08:27:58.686Z,21.35
2023-06-07T08:30:28.487Z,21.41
2023-06-07T08:32:56.944Z,21.48
2023-06-07T08:35:25.440Z,21.45
2023-06-07T08:37:53.927Z,21.45
2023-06-07T08:40:24.144Z,21.50
2023-06-07T08:42:52.687Z,21.63
2023-06-07T08:45:21.452Z,21.77
2023-06-07T08:47:52.643Z,21.91
2023-06-07T08:50:23.750Z,21.95
2023-06-07T08:52:55.587Z,21.96
2023-06-07T08:55:25.289Z,22.09
2023-06-07T08:57:55.312Z,22.19
2023-06-07T09:00:34.100Z,22.34
2023-06-07T09:03:04.112Z,22.48
2023-06-07T09:05:32.552Z,22.56
2023-06-07T09:08:02.209Z,22.57
2023-06-07T09:10:30.698Z,22.60
2023-06-07T09:12:59.141Z,22.66
2023-06-07T09:15:30.764Z,22.79
2023-06-07T09:18:03.482Z,22.96
2023-06-07T09:20:34.462Z,23.06
2023-06-07T09:23:04.228Z,23.14
2023-06-07T09:25:34.206Z,23.16
2023-06-07T09:28:04.724Z,23.13
2023-06-07T09:30:33.168Z,23.21
2023-06-07T09:33:08.213Z,23.26
2023-06-07T09:35:38.303Z,23.26
2023-06-07T09:38:10.295Z,23.26
2023-06-07T09:40:52.266Z,23.24
2023-06-07T09:43:20.806Z,23.32
2023-06-07T09:45:55.398Z,23.47
2023-06-07T09:48:24.392Z,23.56
2023-06-07T09:51:00.747Z,23.63
2023-06-07T09:53:29.463Z,23.66
2023-06-07T09:55:57.847Z,23.74
2023-06-07T09:58:26.283Z,23.75
2023-06-07T10:00:57.257Z,23.74
2023-06-07T10:03:28.427Z,23.82
2023-06-07T10:05:57.077Z,23.93
2023-06-07T10:08:27.052Z,24.02
2023-06-07T10:10:57.190Z,24.16
2023-06-07T10:13:26.410Z,24.20
2023-06-07T10:15:58.085Z,24.23
2023-06-07T10:18:27.793Z,24.30
2023-06-07T10:20:59.793Z,24.37
2023-06-07T10:23:36.885Z,24.37
2023-06-07T10:26:09.395Z,24.41
2023-06-07T10:28:43.002Z,24.54
2023-06-07T10:31:14.897Z,24.69
2023-06-07T10:33:43.902Z,24.86
2023-06-07T10:36:13.321Z,24.99
2023-06-07T10:38:43.890Z,25.07
2023-06-07T10:41:15.001Z,25.13
2023-06-07T10:43:47.883Z,25.20
2023-06-07T10:46:21.651Z,25.30
2023-06-07T10:48:50.334Z,25.35
2023-06-07T10:51:21.069Z,25.41
2023-06-07T10:53:52.313Z,25.59
2023-06-07T10:56:39.464Z,25.65
2023-06-07T10:59:22.557Z,25.65
2023-06-07T11:01:53.492Z,25.60
2023-06-07T11:04:56.984Z,25.66
2023-06-07T11:07:28.860Z,25.82
2023-06-07T11:10:35.518Z,25.99
2023-06-07T11:13:04.825Z,26.10
2023-06-07T11:15:40.108Z,26.20
2023-06-07T11:18:14.928Z,26.32
2023-06-07T11:20:53.913Z,26.16
2023-06-07T11:23:29.907Z,25.99
2023-06-07T11:26:08.410Z,25.96
2023-06-07T11:28:39.753Z,25.87
2023-06-07T11:31:12.058Z,25.87
2023-06-07T11:33:42.563Z,25.99
2023-06-07T11:36:12.601Z,26.21
2023-06-07T11:38:43.810Z,26.44
2023-06-07T11:41:13.835Z,26.65
2023-06-07T11:43:42.489Z,26.75
2023-06-07T11:46:15.790Z,26.80
2023-06-07T11:48:44.404Z,26.89
2023-06-07T11:51:14.935Z,26.99
2023-06-07T11:53:43.331Z,27.09
2023-06-07T11:56:13.358Z,27.26
2023-06-07T11:58:43.051Z,27.36
2023-06-07T12:01:11.568Z,27.47
2023-06-07T12:03:44.989Z,27.57
2023-06-07T12:06:27.163Z,27.62
2023-06-07T12:08:55.713Z,27.68
2023-06-07T12:11:25.780Z,27.77
2023-06-07T12:13:55.762Z,27.91
2023-06-07T12:16:24.339Z,28.07
2023-06-07T12:18:53.260Z,28.13
2023-06-07T12:21:25.605Z,28.21
2023-06-07T12:23:54.767Z,28.26
2023-06-07T12:26:28.969Z,28.28
2023-06-07T12:29:03.603Z,28.25
2023-06-07T12:31:32.277Z,28.32
2023-06-07T12:34:06.822Z,28.43
2023-06-07T12:36:36.292Z,28.47
2023-06-07T12:39:05.871Z,28.57
2023-06-07T12:41:35.958Z,28.64
2023-06-07T12:44:06.492Z,28.73
2023-06-07T12:46:35.336Z,28.75
2023-06-07T12:49:04.667Z,28.59
2023-06-07T12:51:34.396Z,28.55
2023-06-07T12:54:03.441Z,28.67
2023-06-07T12:56:31.976Z,28.86
2023-06-07T12:59:04.040Z,29.04
2023-06-07T13:01:33.115Z,29.16
2023-06-07T13:04:02.265Z,29.21
2023-06-07T13:06:30.873Z,29.22
2023-06-07T13:09:01.545Z,29.23
2023-06-07T13:11:30.066Z,29.22
2023-06-07T13:13:58.457Z,29.34
2023-06-07T13:16:28.545Z,29.51
2023-06-07T13:18:57.117Z,29.58
2023-06-07T13:21:25.646Z,29.42
2023-06-07T13:23:54.178Z,29.37
2023-06-07T13:26:23.957Z,29.36
2023-06-07T13:28:52.604Z,29.30
2023-06-07T13:31:21.105Z,29.33
2023-06-07T13:33:50.892Z,29.48
2023-06-07T13:36:19.682Z,29.58
2023-06-07T13:38:49.898Z,29.70
2023-06-07T13:41:18.384Z,29.80
2023-06-07T13:44:03.452Z,29.79
2023-06-07T13:46:36.668Z,29.76
2023-06-07T13:49:06.994Z,29.83
2023-06-07T13:51:35.841Z,29.88
2023-06-07T13:54:04.265Z,29.89
2023-06-07T13:56:32.693Z,29.97
2023-06-07T13:59:01.299Z,30.10
2023-06-07T14:01:31.038Z,30.10
2023-06-07T14:04:00.020Z,30.13
2023-06-07T14:06:30.158Z,30.13
2023-06-07T14:08:58.736Z,30.18
2023-06-07T14:11:27.361Z,30.22
2023-06-07T14:13:55.854Z,30.29
2023-06-07T14:16:27.144Z,30.35
2023-06-07T14:18:56.818Z,30.36
2023-06-07T14:21:25.638Z,30.36
2023-06-07T14:23:55.449Z,30.29
2023-06-07T14:26:24.078Z,30.36
2023-06-07T14:28:52.589Z,30.48
2023-06-07T14:31:22.956Z,30.51
2023-06-07T14:33:53.186Z,30.47
2023-06-07T14:36:27.965Z,30.54
2023-06-07T14:38:57.758Z,30.61
2023-06-07T14:41:26.194Z,30.65
2023-06-07T14:43:55.996Z,30.64
2023-06-07T14:46:24.527Z,30.59
2023-06-07T14:48:53.016Z,30.56
2023-06-07T14:51:24.436Z,30.58
2023-06-07T14:53:52.976Z,30.47
2023-06-07T14:56:23.104Z,30.17
2023-06-07T14:58:51.624Z,30.15
2023-06-07T15:01:21.049Z,30.31
2023-06-07T15:03:49.587Z,30.41
2023-06-07T15:06:18.080Z,30.51
2023-06-07T15:08:47.508Z,30.51
2023-06-07T15:11:16.963Z,30.54
2023-06-07T15:13:46.741Z,30.54
2023-06-07T15:16:15.219Z,30.47
2023-06-07T15:18:43.949Z,30.48
2023-06-07T15:21:13.047Z,30.54
2023-06-07T15:23:41.478Z,30.55
2023-06-07T15:26:10.492Z,30.57
2023-06-07T15:28:48.189Z,30.60
2023-06-07T15:31:16.628Z,30.65
2023-06-07T15:33:45.035Z,30.64
2023-06-07T15:36:13.430Z,30.64
2023-06-07T15:38:41.948Z,30.62
2023-06-07T15:41:10.451Z,30.62
2023-06-07T15:43:38.943Z,30.60
2023-06-07T15:46:08.690Z,30.66
2023-06-07T15:48:37.213Z,30.66
2023-06-07T15:51:06.263Z,30.64
2023-06-07T15:53:34.652Z,30.59
2023-06-07T15:56:03.012Z,30.58
2023-06-07T15:58:31.517Z,30.56
2023-06-07T16:00:59.902Z,30.58
2023-06-07T16:03:42.215Z,30.60
2023-06-07T16:06:18.104Z,30.62
2023-06-07T16:08:46.744Z,30.55
2023-06-07T16:11:15.103Z,30.54
2023-06-07T16:13:43.539Z,30.56
2023-06-07T16:16:12.161Z,30.60
2023-06-07T16:18:41.976Z,30.64
2023-06-07T16:21:10.418Z,30.60
2023-06-07T16:23:38.908Z,30.58
2023-06-07T16:26:07.423Z,30.54
2023-06-07T16:28:35.810Z,30.49
2023-06-07T16:31:04.285Z,30.44
2023-06-07T16:33:32.932Z,30.41
2023-06-07T16:36:04.574Z,30.39
2023-06-07T16:38:35.082Z,30.35
2023-06-07T16:41:03.562Z,30.32
2023-06-07T16:43:31.938Z,30.31
2023-06-07T16:46:00.453Z,30.33
2023-06-07T16:48:28.941Z,30.33
2023-06-07T16:50:57.354Z,30.36
2023-06-07T16:53:27.115Z,30.35
2023-06-07T16:55:55.689Z,30.32
2023-06-07T16:58:24.378Z,30.29
2023-06-07T17:00:52.793Z,30.32
2023-06-07T17:03:21.405Z,30.26
2023-06-07T17:05:49.933Z,30.20
2023-06-07T17:08:18.320Z,30.16
2023-06-07T17:10:49.275Z,30.13
2023-06-07T17:13:18.246Z,30.10
2023-06-07T17:15:46.980Z,30.13
2023-06-07T17:18:15.705Z,30.20
2023-06-07T17:20:45.522Z,30.33
2023-06-07T17:23:16.794Z,30.47
2023-06-07T17:25:45.248Z,30.59
2023-06-07T17:28:15.024Z,30.73
2023-06-07T17:30:43.453Z,30.90
2023-06-07T17:33:11.920Z,31.12
2023-06-07T17:35:40.896Z,31.37
2023-06-07T17:38:09.400Z,31.53
2023-06-07T17:40:37.795Z,31.43
2023-06-07T17:43:06.867Z,31.10
2023-06-07T17:45:36.671Z,30.58
2023-06-07T17:48:05.286Z,30.12
2023-06-07T17:53:13.317Z,29.36
2023-06-07T17:55:42.312Z,29.10
2023-06-07T17:58:10.697Z,28.90
2023-06-07T18:00:40.557Z,28.69
2023-06-07T18:03:09.751Z,28.46
2023-06-07T18:05:38.298Z,28.26
2023-06-07T18:08:07.622Z,28.12
2023-06-07T18:10:36.065Z,27.95
2023-06-07T18:13:05.118Z,27.81
2023-06-07T18:15:35.644Z,27.69
2023-06-07T18:18:05.808Z,27.58
2023-06-07T18:20:34.268Z,27.50
2023-06-07T18:23:04.809Z,27.45
2023-06-07T18:25:33.341Z,27.40
2023-06-07T18:28:01.756Z,27.32
2023-06-07T18:30:30.380Z,27.24
2023-06-07T18:32:58.783Z,27.19
2023-06-07T18:35:28.600Z,27.13
2023-06-07T18:37:57.021Z,27.04
2023-06-07T18:40:25.514Z,26.96
2023-06-07T18:42:53.918Z,26.90
2023-06-07T18:45:22.457Z,26.80
2023-06-07T18:47:51.022Z,26.74
2023-06-07T18:50:22.175Z,26.69
2023-06-07T18:52:53.744Z,26.62
2023-06-07T18:55:23.565Z,26.48
2023-06-07T18:57:52.002Z,26.33
2023-06-07T19:00:21.178Z,26.21
2023-06-07T19:02:49.742Z,26.11
2023-06-07T19:05:18.438Z,26.04
2023-06-07T19:07:49.230Z,25.94
2023-06-07T19:10:19.096Z,25.92
2023-06-07T19:12:47.553Z,25.90
2023-06-07T19:15:16.501Z,25.87
2023-06-07T19:17:45.071Z,25.83
2023-06-07T19:20:14.599Z,25.74
2023-06-07T19:22:43.019Z,25.62
2023-06-07T19:25:11.478Z,25.51
2023-06-07T19:27:43.901Z,25.45
2023-06-07T19:30:20.696Z,25.40
2023-06-07T19:32:49.266Z,25.34
2023-06-07T19:35:18.077Z,25.29
2023-06-07T19:37:46.610Z,25.19
2023-06-07T19:40:18.352Z,25.02
2023-06-07T19:42:52.205Z,24.88
2023-06-07T19:45:20.897Z,24.81
2023-06-07T19:47:49.370Z,24.75
2023-06-07T19:50:17.829Z,24.70
2023-06-07T19:52:46.588Z,24.59
2023-06-07T19:55:15.246Z,24.54
2023-06-07T19:57:43.743Z,24.45
2023-06-07T20:00:14.588Z,24.25
2023-06-07T20:02:53.015Z,23.93
2023-06-07T20:05:21.902Z,23.74
2023-06-07T20:07:51.365Z,23.63
2023-06-07T20:10:19.876Z,23.63
2023-06-07T20:12:48.315Z,23.53
2023-06-07T20:15:18.471Z,23.30
2023-06-07T20:17:48.092Z,23.22
2023-06-07T20:20:16.663Z,23.22
2023-06-07T20:22:45.121Z,23.19
2023-06-07T20:25:16.276Z,23.11
2023-06-07T20:27:44.774Z,22.95
2023-06-07T20:30:14.451Z,22.89
2023-06-07T20:32:44.253Z,22.91
2023-06-07T20:35:13.948Z,22.93
2023-06-07T20:37:42.366Z,22.83
2023-06-07T20:40:11.468Z,22.77
2023-06-07T20:42:40.406Z,22.76
2023-06-07T20:45:10.273Z,22.59
2023-06-07T20:47:38.904Z,22.55
2023-06-07T20:50:11.841Z,22.57
2023-06-07T20:52:40.363Z,22.60
2023-06-07T20:55:09.519Z,22.60
2023-06-07T20:57:38.021Z,22.52
2023-06-07T21:00:07.937Z,22.45
2023-06-07T21:02:36.786Z,22.42
2023-06-07T21:05:05.875Z,22.34
2023-06-07T21:07:35.810Z,22.22
2023-06-07T21:10:06.114Z,22.17
2023-06-07T21:12:34.707Z,22.10
2023-06-07T21:15:05.651Z,21.99
2023-06-07T21:17:34.621Z,21.95
2023-06-07T21:20:04.262Z,21.91
2023-06-07T21:22:32.916Z,21.86
2023-06-07T21:25:02.960Z,21.87
2023-06-07T21:27:31.405Z,21.96
2023-06-07T21:30:09.860Z,22.02
2023-06-07T21:32:38.456Z,22.01
2023-06-07T21:35:07.896Z,22.00
2023-06-07T21:37:36.375Z,21.98
2023-06-07T21:40:08.033Z,21.91
2023-06-07T21:42:37.010Z,21.81
2023-06-07T21:45:05.990Z,21.73
2023-06-07T21:47:34.422Z,21.61
2023-06-07T21:50:02.983Z,21.41
2023-06-07T21:52:31.743Z,21.30
2023-06-07T21:55:00.434Z,21.16
2023-06-07T21:57:30.710Z,21.02
2023-06-07T21:59:59.363Z,21.02
2023-06-07T22:02:27.969Z,20.95
2023-06-07T22:04:59.101Z,20.99
2023-06-07T22:07:29.509Z,21.02
2023-06-07T22:10:00.316Z,21.08
2023-06-07T22:12:32.092Z,21.04
2023-06-07T22:15:01.865Z,21.06
2023-06-07T22:17:31.013Z,21.07
2023-06-07T22:20:06.593Z,20.93
2023-06-07T22:22:35.995Z,20.85
2023-06-07T22:25:05.183Z,20.83
2023-06-07T22:27:35.060Z,20.76
2023-06-07T22:30:03.787Z,20.71
2023-06-07T22:32:33.795Z,20.64
2023-06-07T22:35:05.904Z,20.60
2023-06-07T22:37:34.680Z,20.56
2023-06-07T22:40:05.766Z,20.41
2023-06-07T22:42:36.386Z,20.35
2023-06-07T22:45:05.319Z,20.32
2023-06-07T22:47:34.105Z,20.25
2023-06-07T22:50:03.640Z,20.19
2023-06-07T22:52:34.248Z,20.22
2023-06-07T22:55:03.171Z,20.33
2023-06-07T22:57:32.815Z,20.46
2023-06-07T23:00:03.074Z,20.50
2023-06-07T23:02:32.226Z,20.41
2023-06-07T23:05:00.703Z,20.40
2023-06-07T23:07:31.028Z,20.38
2023-06-07T23:09:59.492Z,20.39
2023-06-07T23:12:29.772Z,20.39
2023-06-07T23:14:58.490Z,20.32
2023-06-07T23:17:28.570Z,20.21
2023-06-07T23:19:57.176Z,20.15
2023-06-07T23:22:27.636Z,20.03
2023-06-07T23:24:56.024Z,19.93
2023-06-07T23:27:24.388Z,19.90
2023-06-07T23:29:53.645Z,19.89
2023-06-07T23:32:22.076Z,19.82
2023-06-07T23:34:51.830Z,19.72
2023-06-07T23:37:20.494Z,19.74
2023-06-07T23:39:48.937Z,19.68
2023-06-07T23:42:17.374Z,19.62
2023-06-07T23:44:46.014Z,19.48
2023-06-07T23:47:14.481Z,19.42
2023-06-07T23:49:42.848Z,19.35
2023-06-07T23:52:12.847Z,19.31
2023-06-07T23:54:41.248Z,19.30
2023-06-07T23:57:09.880Z,19.38
2023-06-07T23:59:38.399Z,19.36
